Time;durP1;ratioP1;P1;durP2;ratioP2;P2;SDS_P1;SDS_P2;PMS_P1;PMS_P2;Temp;Humidity;BMP_temperature;BMP_pressure;BME280_temperature;BME280_humidity;BME280_pressure;Samples;Min_cycle;Max_cycle;Signal;HPM_P1;HPM_P2
2021/10/30 00:02:09;;;;;;;;;;;8.20;58.70;;;;;;4375484;32;19970;-42
2021/10/30 00:04:36;;;;;;;;;;;8.20;58.90;;;;;;4375420;32;19978;-41
2021/10/30 00:07:02;;;;;;;;;;;8.30;58.90;;;;;;4375565;32;19969;-41
2021/10/30 00:09:28;;;;;;;;;;;8.30;58.80;;;;;;4361762;32;19981;-41
2021/10/30 00:11:54;;;;;;;;;;;8.40;58.80;;;;;;4375712;32;19957;-42
2021/10/30 00:14:21;;;;;;;;;;;8.50;58.90;;;;;;4375111;32;19978;-42
2021/10/30 00:16:47;;;;;;;;;;;8.50;58.90;;;;;;4375676;32;20000;-44
2021/10/30 00:19:13;;;;;;;;;;;8.50;58.80;;;;;;4374855;32;20409;-45
2021/10/30 00:21:40;;;;;;;;;;;8.60;58.80;;;;;;4375522;32;19990;-41
2021/10/30 00:24:06;;;;;;;;;;;8.50;58.70;;;;;;4375115;32;19977;-43
2021/10/30 00:26:32;;;;;;;;;;;8.60;58.90;;;;;;4375230;32;19961;-43
2021/10/30 00:28:59;;;;;;;;;;;8.60;58.80;;;;;;4375128;32;19997;-42
2021/10/30 00:31:25;;;;;;;;;;;8.60;58.60;;;;;;4375447;32;19978;-42
2021/10/30 00:33:51;;;;;;;;;;;8.60;58.50;;;;;;4374949;32;19968;-43
2021/10/30 00:36:17;;;;;;;;;;;8.60;58.50;;;;;;4375309;32;19974;-43
2021/10/30 00:38:43;;;;;;;;;;;8.60;58.40;;;;;;4375201;32;20098;-43
2021/10/30 00:41:10;;;;;;;;;;;8.60;59.10;;;;;;4375031;32;19962;-43
2021/10/30 00:43:36;;;;;;;;;;;8.60;58.50;;;;;;4375005;32;20424;-42
2021/10/30 00:46:02;;;;;;;;;;;8.60;58.50;;;;;;4374959;32;19968;-43
2021/10/30 00:48:28;;;;;;;;;;;8.70;58.50;;;;;;4374284;32;20367;-41
2021/10/30 00:50:56;;;;;;;;;;;8.60;58.50;;;;;;4374759;32;19954;-41
2021/10/30 00:53:23;;;;;;;;;;;8.70;58.60;;;;;;4373290;32;19969;-42
2021/10/30 00:55:49;;;;;;;;;;;8.70;58.50;;;;;;4361434;32;19969;-41
2021/10/30 00:58:16;;;;;;;;;;;8.80;58.60;;;;;;4373468;32;20426;-42
2021/10/30 01:00:42;;;;;;;;;;;8.80;58.60;;;;;;4360802;32;19990;-42
2021/10/30 01:03:08;;;;;;;;;;;8.80;58.70;;;;;;4374418;32;19970;-41
2021/10/30 01:05:34;;;;;;;;;;;8.80;58.70;;;;;;4374590;32;20410;-41
2021/10/30 01:08:01;;;;;;;;;;;8.80;58.70;;;;;;4374290;32;19966;-41
2021/10/30 01:10:27;;;;;;;;;;;8.80;58.70;;;;;;4374066;32;19962;-41
2021/10/30 01:12:53;;;;;;;;;;;8.80;58.70;;;;;;4374462;32;19966;-39
2021/10/30 01:15:19;;;;;;;;;;;8.80;58.70;;;;;;4374762;32;20042;-41
2021/10/30 01:17:45;;;;;;;;;;;8.80;58.80;;;;;;4372718;32;20009;-42
2021/10/30 01:20:21;;;;;;;;;;;8.80;59.00;;;;;;4373775;32;19962;-41
2021/10/30 01:22:47;;;;;;;;;;;8.90;59.20;;;;;;4374723;32;20071;-41
2021/10/30 01:25:14;;;;;;;;;;;8.90;59.30;;;;;;4374007;32;20154;-41
2021/10/30 01:27:41;;;;;;;;;;;8.90;59.30;;;;;;4360235;32;19985;-40
2021/10/30 01:30:08;;;;;;;;;;;9.00;59.30;;;;;;4360149;32;19988;-40
2021/10/30 01:32:34;;;;;;;;;;;9.00;59.10;;;;;;4374206;32;20051;-42
2021/10/30 01:35:01;;;;;;;;;;;9.00;58.80;;;;;;4373941;32;20141;-41
2021/10/30 01:37:27;;;;;;;;;;;9.00;58.40;;;;;;4373947;32;19962;-41
2021/10/30 01:39:53;;;;;;;;;;;9.10;58.50;;;;;;4373359;32;19974;-41
2021/10/30 01:42:19;;;;;;;;;;;9.10;58.40;;;;;;4374584;32;19978;-42
2021/10/30 01:44:45;;;;;;;;;;;9.20;58.40;;;;;;4373682;32;19966;-40
2021/10/30 01:47:11;;;;;;;;;;;9.20;58.50;;;;;;4373935;32;19974;-41
2021/10/30 01:49:38;;;;;;;;;;;9.30;58.50;;;;;;4373924;32;20411;-41
2021/10/30 01:52:04;;;;;;;;;;;9.30;58.30;;;;;;4373708;32;20462;-41
2021/10/30 01:54:30;;;;;;;;;;;9.40;58.20;;;;;;4374136;32;19966;-42
2021/10/30 01:56:57;;;;;;;;;;;9.40;58.20;;;;;;4373496;32;19971;-41
2021/10/30 01:59:23;;;;;;;;;;;9.50;58.10;;;;;;4374263;32;19969;-41
2021/10/30 02:01:49;;;;;;;;;;;9.50;58.00;;;;;;4374137;32;19989;-41
2021/10/30 02:04:15;;;;;;;;;;;9.50;58.00;;;;;;4373448;32;20522;-41
2021/10/30 02:06:42;;;;;;;;;;;9.50;58.00;;;;;;4373542;32;20422;-41
2021/10/30 02:09:08;;;;;;;;;;;9.50;58.10;;;;;;4374211;32;19961;-40
2021/10/30 02:11:34;;;;;;;;;;;9.50;58.10;;;;;;4373873;32;19963;-41
2021/10/30 02:14:00;;;;;;;;;;;9.50;58.20;;;;;;4373695;32;19970;-42
2021/10/30 02:16:27;;;;;;;;;;;9.50;58.30;;;;;;4372326;32;19970;-41
2021/10/30 02:18:53;;;;;;;;;;;9.50;58.20;;;;;;4373405;32;20454;-42
2021/10/30 02:21:19;;;;;;;;;;;9.60;58.20;;;;;;4373755;32;19970;-42
2021/10/30 02:23:45;;;;;;;;;;;9.60;58.00;;;;;;4373418;32;19989;-42
2021/10/30 02:26:12;;;;;;;;;;;9.60;58.10;;;;;;4373997;32;19981;-42
2021/10/30 02:28:38;;;;;;;;;;;9.60;58.40;;;;;;4373690;32;20442;-42
2021/10/30 02:31:04;;;;;;;;;;;9.60;58.20;;;;;;4359741;32;19984;-41
2021/10/30 02:33:30;;;;;;;;;;;9.60;58.10;;;;;;4373378;32;19982;-41
2021/10/30 02:35:57;;;;;;;;;;;9.60;58.20;;;;;;4360001;32;20000;-38
2021/10/30 02:38:23;;;;;;;;;;;9.60;58.00;;;;;;4359661;32;19971;-41
2021/10/30 02:40:49;;;;;;;;;;;9.60;57.80;;;;;;4373308;32;19974;-41
2021/10/30 02:43:15;;;;;;;;;;;9.70;57.90;;;;;;4371769;32;19966;-41
2021/10/30 02:45:41;;;;;;;;;;;9.70;57.80;;;;;;4373469;32;20391;-42
2021/10/30 02:48:08;;;;;;;;;;;9.70;57.80;;;;;;4373389;32;19982;-43
2021/10/30 02:50:34;;;;;;;;;;;9.70;57.80;;;;;;4373252;32;19959;-41
2021/10/30 02:53:00;;;;;;;;;;;9.80;57.90;;;;;;4375078;32;19986;-42
2021/10/30 02:55:26;;;;;;;;;;;9.80;57.80;;;;;;4377145;32;19969;-42
2021/10/30 02:57:53;;;;;;;;;;;9.80;57.60;;;;;;4376437;32;19972;-41
2021/10/30 03:00:19;;;;;;;;;;;9.80;57.50;;;;;;4376592;32;19959;-42
2021/10/30 03:02:45;;;;;;;;;;;9.80;57.70;;;;;;4376582;32;19961;-42
2021/10/30 03:05:12;;;;;;;;;;;9.80;57.80;;;;;;4376738;32;19977;-42
2021/10/30 03:07:38;;;;;;;;;;;9.90;57.60;;;;;;4376588;32;20451;-42
2021/10/30 03:10:05;;;;;;;;;;;9.90;57.60;;;;;;4376528;32;20076;-41
2021/10/30 03:12:32;;;;;;;;;;;9.90;57.70;;;;;;4376591;32;19978;-44
2021/10/30 03:14:58;;;;;;;;;;;9.90;57.70;;;;;;4376222;32;20415;-42
2021/10/30 03:17:24;;;;;;;;;;;9.90;57.50;;;;;;4378845;32;20025;-41
2021/10/30 03:19:50;;;;;;;;;;;9.90;57.50;;;;;;4391153;32;20058;-41
2021/10/30 03:22:17;;;;;;;;;;;9.90;57.40;;;;;;4391420;32;20045;-42
2021/10/30 03:24:43;;;;;;;;;;;10.00;57.40;;;;;;4391351;32;19974;-41
2021/10/30 03:27:09;;;;;;;;;;;10.00;57.40;;;;;;4391063;32;19966;-42
2021/10/30 03:29:35;;;;;;;;;;;10.00;57.50;;;;;;4377518;32;19961;-41
2021/10/30 03:32:02;;;;;;;;;;;10.00;57.20;;;;;;4391034;32;19977;-46
2021/10/30 03:34:28;;;;;;;;;;;10.00;57.10;;;;;;4391150;32;19958;-42
2021/10/30 03:36:54;;;;;;;;;;;10.10;57.10;;;;;;4390993;32;20015;-40
2021/10/30 03:39:20;;;;;;;;;;;10.10;56.80;;;;;;4391172;32;20548;-41
2021/10/30 03:41:46;;;;;;;;;;;10.10;56.70;;;;;;4391051;32;19957;-41
2021/10/30 03:44:13;;;;;;;;;;;10.10;56.90;;;;;;4376516;32;20038;-40
2021/10/30 03:46:39;;;;;;;;;;;10.10;56.80;;;;;;4378661;32;19966;-42
2021/10/30 03:49:05;;;;;;;;;;;10.10;56.80;;;;;;4375846;32;20043;-42
2021/10/30 03:51:31;;;;;;;;;;;10.10;57.00;;;;;;4375522;32;19974;-41
2021/10/30 03:53:57;;;;;;;;;;;10.10;57.20;;;;;;4375814;32;19969;-41
2021/10/30 03:56:24;;;;;;;;;;;10.10;57.40;;;;;;4375840;32;19987;-41
2021/10/30 03:58:52;;;;;;;;;;;10.10;57.50;;;;;;4375517;32;20050;-41
2021/10/30 04:01:18;;;;;;;;;;;10.10;57.60;;;;;;4375406;32;20411;-42
2021/10/30 04:03:44;;;;;;;;;;;10.10;57.50;;;;;;4374748;32;19968;-41
2021/10/30 04:06:11;;;;;;;;;;;10.10;57.60;;;;;;4375235;32;20515;-42
2021/10/30 04:08:37;;;;;;;;;;;10.10;57.40;;;;;;4361305;32;19973;-42
2021/10/30 04:11:03;;;;;;;;;;;10.20;57.50;;;;;;4375281;32;19982;-41
2021/10/30 04:13:30;;;;;;;;;;;10.20;57.40;;;;;;4375707;32;19974;-42
2021/10/30 04:15:56;;;;;;;;;;;10.20;57.30;;;;;;4375371;32;19969;-41
2021/10/30 04:18:22;;;;;;;;;;;10.20;57.60;;;;;;4374996;32;19970;-43
2021/10/30 04:20:48;;;;;;;;;;;10.20;57.60;;;;;;4375256;32;20077;-42
2021/10/30 04:23:14;;;;;;;;;;;10.20;57.60;;;;;;4361256;32;20365;-41
2021/10/30 04:25:41;;;;;;;;;;;10.20;57.60;;;;;;4375176;32;19970;-40
2021/10/30 04:28:07;;;;;;;;;;;10.20;57.70;;;;;;4375176;32;20437;-42
2021/10/30 04:30:33;;;;;;;;;;;10.20;57.70;;;;;;4375349;32;20041;-40
2021/10/30 04:32:59;;;;;;;;;;;10.30;57.70;;;;;;4375509;32;19966;-41
2021/10/30 04:35:26;;;;;;;;;;;10.30;57.80;;;;;;4348996;32;20378;-42
2021/10/30 04:37:52;;;;;;;;;;;10.40;57.90;;;;;;4374756;32;20385;-42
2021/10/30 04:40:18;;;;;;;;;;;10.40;58.20;;;;;;4375236;32;19969;-42
2021/10/30 04:42:44;;;;;;;;;;;10.40;58.20;;;;;;4375211;32;20042;-41
2021/10/30 04:45:11;;;;;;;;;;;10.50;58.30;;;;;;4374842;32;20033;-42
2021/10/30 04:47:37;;;;;;;;;;;10.50;58.30;;;;;;4374891;32;19969;-43
2021/10/30 04:50:04;;;;;;;;;;;10.60;58.30;;;;;;4373283;32;20020;-41
2021/10/30 04:52:30;;;;;;;;;;;10.60;58.20;;;;;;4374718;32;20422;-42
2021/10/30 04:54:56;;;;;;;;;;;10.70;58.00;;;;;;4374817;32;20527;-42
2021/10/30 04:57:23;;;;;;;;;;;10.70;57.60;;;;;;4374631;32;20030;-41
2021/10/30 04:59:49;;;;;;;;;;;10.80;57.50;;;;;;4374815;32;19970;-41
2021/10/30 05:02:15;;;;;;;;;;;10.80;57.50;;;;;;4374573;32;20376;-42
2021/10/30 05:04:41;;;;;;;;;;;10.80;57.30;;;;;;4374860;32;20128;-41
2021/10/30 05:07:08;;;;;;;;;;;10.80;57.30;;;;;;4374664;32;19993;-42
2021/10/30 05:09:34;;;;;;;;;;;10.80;57.50;;;;;;4375264;32;19958;-42
2021/10/30 05:12:00;;;;;;;;;;;10.80;57.50;;;;;;4374553;32;20425;-41
2021/10/30 05:14:26;;;;;;;;;;;10.90;57.50;;;;;;4375056;32;19994;-42
2021/10/30 05:16:53;;;;;;;;;;;10.90;57.50;;;;;;4374595;32;20370;-42
2021/10/30 05:19:19;;;;;;;;;;;10.90;57.50;;;;;;4388698;32;20423;-41
2021/10/30 05:21:46;;;;;;;;;;;10.90;57.50;;;;;;4389482;32;19985;-42
2021/10/30 05:24:13;;;;;;;;;;;11.00;57.70;;;;;;4389539;32;19978;-42
2021/10/30 05:26:39;;;;;;;;;;;11.00;57.80;;;;;;4389286;32;19981;-41
2021/10/30 05:29:05;;;;;;;;;;;11.00;57.80;;;;;;4389543;32;19957;-42
2021/10/30 05:31:31;;;;;;;;;;;11.10;57.70;;;;;;4389433;32;20005;-42
2021/10/30 05:33:57;;;;;;;;;;;11.10;57.80;;;;;;4389505;32;20529;-43
2021/10/30 05:36:26;;;;;;;;;;;11.10;57.80;;;;;;4389173;32;20123;-42
2021/10/30 05:38:54;;;;;;;;;;;11.10;57.90;;;;;;4389238;32;20433;-43
2021/10/30 05:41:20;;;;;;;;;;;11.20;57.80;;;;;;4388945;32;19997;-42
2021/10/30 05:43:46;;;;;;;;;;;11.20;58.00;;;;;;4375419;32;19981;-43
2021/10/30 05:46:13;;;;;;;;;;;11.20;57.80;;;;;;4365515;32;19981;-42
2021/10/30 05:48:39;;;;;;;;;;;11.30;57.80;;;;;;4373586;32;20386;-41
2021/10/30 05:51:06;;;;;;;;;;;11.30;57.70;;;;;;4373632;32;19969;-41
2021/10/30 05:53:33;;;;;;;;;;;11.30;57.50;;;;;;4373867;32;19966;-43
2021/10/30 05:55:59;;;;;;;;;;;11.30;57.50;;;;;;4373573;32;19969;-42
2021/10/30 05:58:26;;;;;;;;;;;11.30;57.50;;;;;;4373993;32;19972;-42
2021/10/30 06:00:52;;;;;;;;;;;11.40;57.50;;;;;;4373882;32;19965;-42
2021/10/30 06:03:18;;;;;;;;;;;11.40;57.60;;;;;;4373548;32;20370;-42
2021/10/30 06:05:47;;;;;;;;;;;11.40;57.50;;;;;;4373080;32;20366;-42
2021/10/30 06:08:13;;;;;;;;;;;11.40;57.50;;;;;;4373818;32;19962;-42
2021/10/30 06:10:39;;;;;;;;;;;11.40;57.40;;;;;;4373276;32;20041;-41
2021/10/30 06:13:05;;;;;;;;;;;11.40;57.40;;;;;;4373770;32;19962;-44
2021/10/30 06:15:31;;;;;;;;;;;11.50;57.40;;;;;;4359845;32;19980;-42
2021/10/30 06:17:58;;;;;;;;;;;11.40;57.40;;;;;;4373354;32;20418;-44
2021/10/30 06:20:24;;;;;;;;;;;11.50;57.20;;;;;;4374316;32;19973;-43
2021/10/30 06:22:50;;;;;;;;;;;11.50;57.10;;;;;;4373546;32;19966;-43
2021/10/30 06:25:16;;;;;;;;;;;11.50;57.10;;;;;;4373482;32;19985;-42
2021/10/30 06:27:43;;;;;;;;;;;11.60;57.10;;;;;;4373290;32;19980;-44
2021/10/30 06:30:10;;;;;;;;;;;11.60;57.00;;;;;;4373376;32;20485;-42
2021/10/30 06:32:36;;;;;;;;;;;11.70;56.80;;;;;;4373505;32;19986;-42
2021/10/30 06:35:06;;;;;;;;;;;11.70;56.80;;;;;;4359730;32;19974;-42
2021/10/30 06:37:38;;;;;;;;;;;11.70;56.60;;;;;;4373073;32;20066;-43
2021/10/30 06:40:07;;;;;;;;;;;11.70;56.60;;;;;;4373167;32;19974;-42
2021/10/30 06:42:33;;;;;;;;;;;11.70;56.50;;;;;;4373411;32;20077;-42
2021/10/30 06:44:59;;;;;;;;;;;11.70;56.50;;;;;;4373084;32;20009;-42
2021/10/30 06:47:25;;;;;;;;;;;11.70;56.60;;;;;;4373081;32;19981;-43
2021/10/30 06:49:53;;;;;;;;;;;11.80;56.50;;;;;;4373410;32;20064;-43
2021/10/30 06:52:19;;;;;;;;;;;11.80;56.40;;;;;;4373099;32;19962;-43
2021/10/30 06:54:46;;;;;;;;;;;11.80;56.20;;;;;;4373210;32;19986;-43
2021/10/30 06:57:12;;;;;;;;;;;11.80;55.90;;;;;;4373066;32;19993;-42
2021/10/30 06:59:38;;;;;;;;;;;11.80;56.20;;;;;;4373595;32;19974;-43
2021/10/30 07:02:05;;;;;;;;;;;11.90;56.20;;;;;;4371275;32;19962;-42
2021/10/30 07:04:34;;;;;;;;;;;11.90;56.10;;;;;;4372248;32;19977;-43
2021/10/30 07:07:01;;;;;;;;;;;11.90;56.00;;;;;;4373128;32;19970;-43
2021/10/30 07:09:27;;;;;;;;;;;12.00;56.10;;;;;;4373079;32;19971;-43
2021/10/30 07:11:53;;;;;;;;;;;12.00;55.90;;;;;;4372872;32;19974;-43
2021/10/30 07:14:21;;;;;;;;;;;12.10;55.80;;;;;;4373019;32;20054;-44
2021/10/30 07:16:48;;;;;;;;;;;12.10;55.60;;;;;;4373264;32;20066;-42
2021/10/30 07:19:15;;;;;;;;;;;12.20;55.70;;;;;;4386844;32;19962;-43
2021/10/30 07:21:41;;;;;;;;;;;12.20;55.60;;;;;;4388206;32;19978;-42
2021/10/30 07:24:07;;;;;;;;;;;12.20;55.60;;;;;;4387955;32;20433;-42
2021/10/30 07:26:33;;;;;;;;;;;12.30;55.70;;;;;;4387977;32;19996;-42
2021/10/30 07:29:00;;;;;;;;;;;12.40;55.80;;;;;;4388234;32;19967;-43
2021/10/30 07:31:26;;;;;;;;;;;12.40;55.50;;;;;;4387992;32;20023;-41
2021/10/30 07:33:52;;;;;;;;;;;12.50;55.30;;;;;;4388021;32;19973;-43
2021/10/30 07:36:18;;;;;;;;;;;12.50;55.00;;;;;;4387679;32;19973;-42
2021/10/30 07:38:44;;;;;;;;;;;12.50;55.00;;;;;;4389152;32;19973;-41
2021/10/30 07:41:10;;;;;;;;;;;12.50;55.00;;;;;;4390962;32;20062;-43
2021/10/30 07:43:36;;;;;;;;;;;12.50;55.10;;;;;;4390626;32;19961;-43
2021/10/30 07:46:03;;;;;;;;;;;12.60;54.90;;;;;;4382410;32;19981;-43
2021/10/30 07:48:29;;;;;;;;;;;12.50;54.80;;;;;;4375581;32;19973;-43
2021/10/30 07:50:55;;;;;;;;;;;12.60;54.90;;;;;;4375634;32;19966;-43
2021/10/30 07:53:21;;;;;;;;;;;12.60;54.80;;;;;;4375588;32;20047;-43
2021/10/30 07:55:48;;;;;;;;;;;12.60;54.80;;;;;;4375136;32;20049;-41
2021/10/30 07:58:15;;;;;;;;;;;12.60;54.90;;;;;;4375518;32;19974;-43
2021/10/30 08:00:41;;;;;;;;;;;12.60;55.00;;;;;;4375592;32;19974;-42
2021/10/30 08:03:07;;;;;;;;;;;12.70;55.00;;;;;;4375260;32;19978;-43
2021/10/30 08:05:33;;;;;;;;;;;12.70;54.90;;;;;;4342799;33;20002;-43
2021/10/30 08:08:00;;;;;;;;;;;12.70;54.90;;;;;;4343081;33;20042;-41
2021/10/30 08:10:28;;;;;;;;;;;12.80;54.90;;;;;;4342816;32;19971;-43
2021/10/30 08:12:55;;;;;;;;;;;12.80;54.90;;;;;;4342855;32;19975;-43
2021/10/30 08:15:21;;;;;;;;;;;12.90;54.70;;;;;;4343093;32;19969;-41
2021/10/30 08:17:47;;;;;;;;;;;13.00;54.40;;;;;;4342591;33;19962;-41
2021/10/30 08:20:13;;;;;;;;;;;13.00;54.40;;;;;;4343035;33;19973;-44
2021/10/30 08:22:40;;;;;;;;;;;13.10;54.30;;;;;;4342939;33;20407;-42
2021/10/30 08:25:07;;;;;;;;;;;13.20;54.10;;;;;;4342768;33;19963;-42
2021/10/30 08:27:33;;;;;;;;;;;13.30;54.10;;;;;;4342947;33;19993;-42
2021/10/30 08:29:59;;;;;;;;;;;13.40;54.00;;;;;;4342606;33;20095;-42
2021/10/30 08:32:25;;;;;;;;;;;13.50;53.60;;;;;;4343069;33;20046;-41
2021/10/30 08:34:52;;;;;;;;;;;13.50;53.00;;;;;;4342955;33;20119;-42
2021/10/30 08:37:19;;;;;;;;;;;13.50;52.90;;;;;;4342755;33;19994;-42
2021/10/30 08:39:45;;;;;;;;;;;13.60;52.90;;;;;;4312511;33;20009;-43
2021/10/30 08:42:11;;;;;;;;;;;13.50;52.70;;;;;;4315458;33;20062;-46
2021/10/30 08:44:39;;;;;;;;;;;13.60;52.70;;;;;;4327721;33;20112;-41
2021/10/30 08:47:05;;;;;;;;;;;13.70;52.70;;;;;;4342029;33;20082;-41
2021/10/30 08:49:32;;;;;;;;;;;13.70;52.60;;;;;;4342172;32;19974;-43
2021/10/30 08:51:58;;;;;;;;;;;13.70;52.40;;;;;;4342487;33;19967;-42
2021/10/30 08:54:24;;;;;;;;;;;13.80;52.40;;;;;;4342102;33;20184;-43
2021/10/30 08:56:50;;;;;;;;;;;13.80;52.20;;;;;;4342087;33;19977;-41
2021/10/30 08:59:16;;;;;;;;;;;13.90;52.10;;;;;;4342281;33;20506;-43
2021/10/30 09:01:47;;;;;;;;;;;13.90;52.00;;;;;;4342042;32;20014;-42
2021/10/30 09:04:15;;;;;;;;;;;14.00;52.10;;;;;;4342308;33;20462;-44
2021/10/30 09:07:01;;;;;;;;;;;14.00;51.80;;;;;;4342255;33;19989;-43
2021/10/30 09:09:28;;;;;;;;;;;14.10;51.70;;;;;;4341608;33;20062;-43
2021/10/30 09:11:56;;;;;;;;;;;14.10;51.60;;;;;;4359174;32;19977;-42
2021/10/30 09:14:24;;;;;;;;;;;14.20;51.50;;;;;;4359372;32;20002;-42
2021/10/30 09:17:16;;;;;;;;;;;14.20;51.40;;;;;;4359528;32;19977;-41
2021/10/30 09:19:47;;;;;;;;;;;14.20;51.10;;;;;;4364039;32;19954;-43
2021/10/30 09:22:15;;;;;;;;;;;14.20;51.10;;;;;;4374595;32;19978;-43
2021/10/30 09:24:58;;;;;;;;;;;14.30;51.20;;;;;;4374317;32;20398;-42
2021/10/30 09:27:49;;;;;;;;;;;14.20;51.10;;;;;;4374355;32;20033;-42
2021/10/30 09:30:40;;;;;;;;;;;14.20;51.10;;;;;;4372394;32;19996;-42
2021/10/30 09:33:10;;;;;;;;;;;14.20;51.30;;;;;;4373492;32;19958;-42
2021/10/30 09:35:44;;;;;;;;;;;14.30;51.30;;;;;;4373866;32;20042;-42
2021/10/30 09:38:11;;;;;;;;;;;14.30;51.40;;;;;;4374015;32;19970;-43
2021/10/30 09:40:38;;;;;;;;;;;14.30;51.40;;;;;;4374323;32;19965;-42
2021/10/30 09:43:24;;;;;;;;;;;14.40;51.50;;;;;;4374069;32;19966;-41
2021/10/30 09:45:56;;;;;;;;;;;14.40;51.40;;;;;;4364099;32;19981;-43
2021/10/30 09:48:24;;;;;;;;;;;14.50;51.10;;;;;;4374180;32;19962;-42
2021/10/30 09:50:52;;;;;;;;;;;14.50;51.10;;;;;;4372651;32;20011;-44
2021/10/30 09:53:40;;;;;;;;;;;14.50;51.10;;;;;;4374501;32;20054;-44
2021/10/30 09:56:08;;;;;;;;;;;14.40;51.10;;;;;;4373426;32;20052;-43
2021/10/30 09:58:39;;;;;;;;;;;14.40;51.30;;;;;;4373375;32;20378;-43
2021/10/30 10:01:08;;;;;;;;;;;14.40;51.50;;;;;;4373409;32;19973;-44
2021/10/30 10:03:34;;;;;;;;;;;14.40;51.50;;;;;;4373594;32;19970;-43
2021/10/30 10:06:05;;;;;;;;;;;14.40;51.50;;;;;;4373258;32;19984;-42
2021/10/30 10:08:33;;;;;;;;;;;14.40;51.60;;;;;;4374015;32;19966;-42
2021/10/30 10:10:59;;;;;;;;;;;14.50;51.80;;;;;;4373695;32;19973;-42
2021/10/30 10:13:26;;;;;;;;;;;14.50;51.60;;;;;;4373649;32;19966;-43
2021/10/30 10:15:52;;;;;;;;;;;14.50;51.70;;;;;;4372317;32;19982;-41
2021/10/30 10:18:20;;;;;;;;;;;14.50;51.80;;;;;;4381825;32;19965;-42
2021/10/30 10:20:46;;;;;;;;;;;14.50;51.80;;;;;;4388563;32;20465;-40
2021/10/30 10:23:14;;;;;;;;;;;14.50;51.80;;;;;;4374183;32;20058;-42
2021/10/30 10:25:55;;;;;;;;;;;14.50;51.70;;;;;;4374600;32;20051;-43
2021/10/30 10:28:35;;;;;;;;;;;14.60;51.80;;;;;;4388832;32;20047;-42
2021/10/30 10:31:09;;;;;;;;;;;14.60;51.90;;;;;;4388374;32;19969;-42
2021/10/30 10:33:36;;;;;;;;;;;14.60;51.80;;;;;;4374919;32;19996;-42
2021/10/30 10:36:23;;;;;;;;;;;14.70;51.60;;;;;;4387964;32;20421;-41
2021/10/30 10:38:58;;;;;;;;;;;14.70;51.80;;;;;;4388161;32;20454;-41
2021/10/30 10:41:43;;;;;;;;;;;14.80;51.70;;;;;;4388166;32;19988;-40
2021/10/30 10:44:11;;;;;;;;;;;14.90;51.60;;;;;;4388463;32;19958;-41
2021/10/30 10:46:41;;;;;;;;;;;15.00;51.50;;;;;;4363209;32;19966;-43
2021/10/30 10:49:37;;;;;;;;;;;15.10;51.20;;;;;;4373269;32;19969;-41
2021/10/30 10:52:24;;;;;;;;;;;15.20;50.90;;;;;;4373375;32;19982;-41
2021/10/30 10:54:58;;;;;;;;;;;15.20;50.80;;;;;;4372169;32;19958;-42
2021/10/30 10:57:28;;;;;;;;;;;15.20;50.60;;;;;;4373092;32;19974;-41
2021/10/30 10:59:58;;;;;;;;;;;15.20;50.70;;;;;;4373524;32;19966;-42
2021/10/30 11:02:51;;;;;;;;;;;15.30;50.80;;;;;;4373103;32;20047;-42
2021/10/30 11:05:23;;;;;;;;;;;15.30;51.30;;;;;;4371345;32;19982;-42
2021/10/30 11:07:49;;;;;;;;;;;15.30;50.60;;;;;;4373219;32;19984;-42
2021/10/30 11:10:25;;;;;;;;;;;15.30;50.70;;;;;;4373051;32;20635;-40
2021/10/30 11:13:09;;;;;;;;;;;15.20;50.70;;;;;;4374605;32;20450;-44
2021/10/30 11:15:55;;;;;;;;;;;15.20;50.60;;;;;;4376043;32;20451;-41
2021/10/30 11:18:28;;;;;;;;;;;15.20;50.80;;;;;;4375535;32;19966;-42
2021/10/30 11:21:22;;;;;;;;;;;15.20;50.90;;;;;;4376568;32;19965;-42
2021/10/30 11:23:50;;;;;;;;;;;15.20;50.90;;;;;;4375859;32;19985;-42
2021/10/30 11:26:18;;;;;;;;;;;15.30;51.10;;;;;;4375849;32;20445;-42
2021/10/30 11:28:44;;;;;;;;;;;15.30;51.00;;;;;;4375729;32;19983;-42
2021/10/30 11:31:15;;;;;;;;;;;15.30;50.90;;;;;;4361583;32;19986;-42
2021/10/30 11:33:41;;;;;;;;;;;15.30;51.00;;;;;;4375990;32;19963;-42
2021/10/30 11:36:12;;;;;;;;;;;15.30;51.10;;;;;;4375966;32;19972;-42
2021/10/30 11:38:44;;;;;;;;;;;15.30;51.10;;;;;;4375760;32;20047;-42
2021/10/30 11:41:14;;;;;;;;;;;15.40;51.00;;;;;;4375770;32;20373;-43
2021/10/30 11:43:41;;;;;;;;;;;15.40;51.00;;;;;;4386077;32;20466;-42
2021/10/30 11:46:11;;;;;;;;;;;15.40;50.90;;;;;;4375775;32;20049;-41
2021/10/30 11:48:40;;;;;;;;;;;15.50;50.80;;;;;;4375401;32;20078;-42
2021/10/30 11:51:10;;;;;;;;;;;15.50;50.60;;;;;;4375759;32;20115;-42
2021/10/30 11:53:40;;;;;;;;;;;15.60;50.60;;;;;;4375453;32;20063;-40
2021/10/30 11:56:11;;;;;;;;;;;15.70;50.50;;;;;;4373883;32;19970;-42
2021/10/30 11:58:48;;;;;;;;;;;15.80;50.50;;;;;;4375644;32;20410;-42
2021/10/30 12:01:20;;;;;;;;;;;15.90;50.40;;;;;;4375551;32;19962;-41
2021/10/30 12:03:46;;;;;;;;;;;16.10;50.00;;;;;;4375890;32;19985;-43
2021/10/30 12:06:13;;;;;;;;;;;16.20;49.70;;;;;;4375440;32;19981;-43
2021/10/30 12:08:40;;;;;;;;;;;16.30;49.40;;;;;;4375140;32;20390;-45
2021/10/30 12:11:07;;;;;;;;;;;16.30;49.10;;;;;;4373781;32;19974;-42
2021/10/30 12:13:33;;;;;;;;;;;16.20;49.00;;;;;;4375461;32;19970;-41
2021/10/30 12:16:01;;;;;;;;;;;16.20;49.10;;;;;;4374937;32;19962;-39
2021/10/30 12:18:28;;;;;;;;;;;16.30;49.30;;;;;;4384256;32;20421;-43
2021/10/30 12:20:56;;;;;;;;;;;16.30;49.10;;;;;;4390253;32;19981;-41
2021/10/30 12:23:23;;;;;;;;;;;16.30;48.90;;;;;;4390106;32;19968;-42
2021/10/30 12:25:49;;;;;;;;;;;16.30;48.90;;;;;;4389742;32;20471;-41
2021/10/30 12:28:15;;;;;;;;;;;16.20;48.90;;;;;;4389959;32;19988;-41
2021/10/30 12:30:41;;;;;;;;;;;16.20;49.00;;;;;;4363069;32;20039;-41
2021/10/30 12:33:16;;;;;;;;;;;16.30;49.00;;;;;;4389910;32;19981;-42
2021/10/30 12:35:43;;;;;;;;;;;16.30;49.10;;;;;;4389954;32;20410;-44
2021/10/30 12:38:20;;;;;;;;;;;16.20;49.10;;;;;;4389881;32;19969;-42
2021/10/30 12:40:48;;;;;;;;;;;16.30;49.20;;;;;;4389550;32;19960;-42
2021/10/30 12:43:27;;;;;;;;;;;16.30;49.10;;;;;;4389511;32;20038;-41
2021/10/30 12:45:58;;;;;;;;;;;16.30;49.10;;;;;;4382606;32;19970;-42
2021/10/30 12:48:28;;;;;;;;;;;16.30;49.10;;;;;;4374802;32;19954;-43
2021/10/30 12:50:59;;;;;;;;;;;16.30;49.10;;;;;;4360902;32;20030;-42
2021/10/30 12:53:30;;;;;;;;;;;16.30;49.10;;;;;;4374525;32;20432;-41
2021/10/30 12:56:14;;;;;;;;;;;16.30;49.10;;;;;;4384682;32;20425;-42
2021/10/30 12:58:42;;;;;;;;;;;16.30;49.10;;;;;;4371679;32;19966;-42
2021/10/30 13:01:21;;;;;;;;;;;16.20;49.10;;;;;;4371871;32;20009;-42
2021/10/30 13:03:59;;;;;;;;;;;16.20;49.20;;;;;;4359781;32;20061;-41
2021/10/30 13:06:26;;;;;;;;;;;16.20;49.30;;;;;;4371677;32;20049;-42
2021/10/30 13:08:52;;;;;;;;;;;16.10;49.40;;;;;;4371622;32;19970;-41
2021/10/30 13:11:19;;;;;;;;;;;16.00;49.40;;;;;;4371808;32;19969;-41
2021/10/30 13:13:45;;;;;;;;;;;15.80;49.60;;;;;;4371269;32;20332;-42
2021/10/30 13:16:12;;;;;;;;;;;15.70;49.80;;;;;;4359390;32;19998;-42
2021/10/30 13:18:38;;;;;;;;;;;15.50;50.10;;;;;;4371673;32;20511;-41
2021/10/30 13:21:05;;;;;;;;;;;15.40;50.40;;;;;;4371853;32;20000;-39
2021/10/30 13:23:31;;;;;;;;;;;15.20;50.60;;;;;;4372108;32;19972;-41
2021/10/30 13:25:57;;;;;;;;;;;15.10;50.90;;;;;;4371643;32;20067;-41
2021/10/30 13:28:23;;;;;;;;;;;15.00;51.20;;;;;;4371870;32;20636;-42
2021/10/30 13:30:50;;;;;;;;;;;14.90;51.40;;;;;;4371673;32;19977;-41
2021/10/30 13:33:16;;;;;;;;;;;14.80;51.50;;;;;;4372621;32;19974;-41
2021/10/30 13:35:42;;;;;;;;;;;14.70;51.70;;;;;;4373500;32;20062;-41
2021/10/30 13:38:08;;;;;;;;;;;14.70;51.80;;;;;;4373831;32;19962;-41
2021/10/30 13:40:34;;;;;;;;;;;14.60;51.90;;;;;;4374186;32;19962;-41
2021/10/30 13:43:00;;;;;;;;;;;14.50;52.00;;;;;;4359956;32;20039;-41
2021/10/30 13:45:27;;;;;;;;;;;14.50;52.30;;;;;;4373981;32;19968;-41
2021/10/30 13:47:53;;;;;;;;;;;14.40;52.50;;;;;;4373458;32;19970;-41
2021/10/30 13:50:19;;;;;;;;;;;14.30;52.70;;;;;;4373770;32;20030;-41
2021/10/30 13:52:46;;;;;;;;;;;14.20;53.00;;;;;;4373219;32;19978;-41
2021/10/30 13:55:12;;;;;;;;;;;14.10;53.20;;;;;;4373654;32;19973;-41
2021/10/30 13:57:38;;;;;;;;;;;14.00;53.40;;;;;;4373285;32;19966;-41
2021/10/30 14:00:05;;;;;;;;;;;13.90;53.60;;;;;;4373329;32;19958;-41
2021/10/30 14:02:31;;;;;;;;;;;13.90;53.80;;;;;;4373767;32;20062;-40
2021/10/30 14:04:57;;;;;;;;;;;13.80;54.00;;;;;;4373354;32;20473;-41
2021/10/30 14:07:23;;;;;;;;;;;13.80;54.20;;;;;;4371710;32;19989;-41
2021/10/30 14:09:50;;;;;;;;;;;13.70;54.20;;;;;;4373068;32;19986;-41
2021/10/30 14:12:16;;;;;;;;;;;13.70;54.40;;;;;;4373602;32;19973;-41
2021/10/30 14:14:42;;;;;;;;;;;13.60;54.60;;;;;;4341083;33;19987;-41
2021/10/30 14:17:08;;;;;;;;;;;13.60;55.00;;;;;;4340977;33;20055;-41
2021/10/30 14:19:34;;;;;;;;;;;13.50;55.40;;;;;;4341691;33;20056;-41
2021/10/30 14:22:01;;;;;;;;;;;13.40;55.70;;;;;;4328988;33;19982;-41
2021/10/30 14:24:27;;;;;;;;;;;13.40;56.20;;;;;;4341094;33;19987;-43
2021/10/30 14:26:57;;;;;;;;;;;13.30;56.60;;;;;;4340960;33;19971;-42